Flight Track Log - Related Links

Times and Time Zones

All times are in EDT time to prevent confusion due to time zone crossing. See the UAE787 flight status page for this flight to view local times or setup timezone preferences in your user account.

Time Position Orientation Groundspeed Altitude Reporting Facility
EDT Latitude Longitude Course Direction KTS MPH feet Rate Location/Type
Thu 09:35:00 AM 5.5850 -0.3948 265° West  Level Estimated
Thu 09:36:00 AM 5.5749 -0.5088 265° West  Level Estimated
Thu 09:37:00 AM 5.5648 -0.6228 265° West  Level Estimated
Thu 09:38:00 AM 5.5546 -0.7368 265° West  Level Estimated
Thu 09:39:00 AM 5.5444 -0.8508 265° West  Level Estimated
Thu 09:40:00 AM 5.5342 -0.9647 265° West  Level Estimated
Thu 09:41:00 AM 5.5240 -1.0787 265° West  Level Estimated
Thu 09:42:00 AM 5.5137 -1.1927 265° West  Level Estimated
Thu 09:43:00 AM 5.5034 -1.3067 265° West  Level Estimated
Thu 09:44:00 AM 5.4932 -1.4207 265° West  Level Estimated
Thu 09:45:00 AM 5.4829 -1.5346 265° West  Level Estimated
Thu 09:46:00 AM 5.4725 -1.6486 265° West  Level Estimated
Thu 09:47:00 AM 5.4622 -1.7625 265° West  Level Estimated
Thu 09:48:00 AM 5.4518 -1.8765 265° West  Level Estimated
Thu 09:49:00 AM 5.4414 -1.9904 265° West  Level Estimated
Thu 09:50:00 AM 5.4310 -2.1044 265° West  Level Estimated
Thu 09:51:00 AM 5.4205 -2.2183 265° West  Level Estimated
Thu 09:52:00 AM 5.4100 -2.3323 265° West  Level Estimated
Thu 09:53:00 AM 5.3996 -2.4462 265° West  Level Estimated
Thu 09:54:00 AM 5.3891 -2.5601 265° West  Level Estimated
Thu 09:55:00 AM 5.3785 -2.6740 265° West  Level Estimated
Thu 09:56:00 AM 5.3680 -2.7880 265° West  Level Estimated
Thu 09:57:00 AM 5.3574 -2.9019 265° West  Level Estimated
Thu 09:58:00 AM 5.3468 -3.0158 265° West  Level Estimated
Thu 09:59:00 AM 5.3362 -3.1297 265° West  Level Estimated
Thu 10:00:00 AM 5.3256 -3.2436 265° West  Level Estimated
Thu 10:01:00 AM 5.3149 -3.3575 265° West  Level Estimated
Thu 10:02:00 AM 5.3042 -3.4714 265° West  Level Estimated
Thu 10:03:00 AM 5.2935 -3.5853 265° West  Level Estimated
Thu 10:04:00 AM 5.2828 -3.6992 265° West  Level Estimated
Thu 10:05:00 AM 5.2721 -3.8131 265° West  Level Estimated
Thu 10:06:00 AM 5.2614 -3.9263 265° West  Level Estimated
Thu 10:07:00 AM 5.2614 -3.9263 225° Southwest  Level Estimated
Thu 10:08:00 AM 5.2614 -3.9263 225° Southwest  Level Estimated
Thu 10:09:00 AM 5.2614 -3.9263 225° Southwest  Level Estimated
Thu 10:10:00 AM 5.2614 -3.9263 225° Southwest  Level Estimated
Thu 10:11:00 AM 5.2614 -3.9263 225° Southwest  Level Estimated
Thu 10:12:00 AM 5.2614 -3.9263 225° Southwest  Level Estimated
Thu 10:13:00 AM 5.2614 -3.9263 225° Southwest  Level Estimated
Thu 10:14:00 AM 5.2614 -3.9263 225° Southwest  Level Estimated
Thu 10:15:00 AM 5.2614 -3.9263 225° Southwest  Level Estimated
Thu 10:16:00 AM 5.2614 -3.9263 225° Southwest  Level Estimated
Thu 10:17:00 AM 5.2614 -3.9263 225° Southwest  Level Estimated

Login

Don't have an account? Register now (free) for customized features, flight alerts, and more!